createdAt,value
2022-11-01T10:04:41.644Z,22.44
2022-11-01T10:07:17.279Z,22.41
2022-11-01T10:10:06.904Z,22.66
2022-11-01T10:13:04.771Z,22.52
2022-11-01T10:15:44.646Z,22.57
2022-11-01T10:18:26.605Z,22.53
2022-11-01T10:21:00.872Z,22.60
2022-11-01T10:23:42.984Z,22.54
2022-11-01T10:26:16.545Z,22.86
2022-11-01T10:28:52.824Z,22.79
2022-11-01T10:31:24.680Z,22.68
2022-11-01T10:34:11.263Z,22.77
2022-11-01T10:36:45.203Z,22.74
2022-11-01T10:39:54.709Z,22.67
2022-11-01T10:42:29.635Z,22.45
2022-11-01T10:45:06.883Z,22.64
2022-11-01T10:47:35.607Z,22.10
2022-11-01T10:50:12.884Z,22.09
2022-11-01T10:53:01.712Z,22.30
2022-11-01T10:55:42.021Z,22.30
2022-11-01T10:58:36.371Z,22.62
2022-11-01T11:01:08.185Z,22.65
2022-11-01T11:03:41.393Z,22.64
2022-11-01T11:06:13.970Z,22.71
2022-11-01T11:08:45.327Z,22.79
2022-11-01T11:11:17.322Z,22.89
2022-11-01T11:13:54.448Z,22.80
2022-11-01T11:16:45.343Z,22.52
2022-11-01T11:19:19.692Z,22.60
2022-11-01T11:21:50.281Z,22.94
2022-11-01T11:24:21.359Z,23.01
2022-11-01T11:26:56.215Z,23.12
2022-11-01T11:29:38.463Z,23.18
2022-11-01T11:32:15.747Z,23.09
2022-11-01T11:34:45.673Z,22.76
2022-11-01T11:37:22.000Z,22.44
2022-11-01T11:40:11.533Z,22.10
2022-11-01T11:42:40.206Z,22.47
2022-11-01T11:45:19.603Z,22.33
2022-11-01T11:47:50.608Z,22.04
2022-11-01T11:50:21.324Z,22.36
2022-11-01T11:53:00.688Z,22.08
2022-11-01T11:55:48.657Z,22.27
2022-11-01T11:58:39.244Z,22.82
2022-11-01T12:01:21.694Z,23.04
2022-11-01T12:04:14.125Z,23.30
2022-11-01T12:06:45.344Z,22.79
2022-11-01T12:09:50.436Z,22.74
2022-11-01T12:12:27.403Z,23.15
2022-11-01T12:14:57.503Z,23.09
2022-11-01T12:17:35.251Z,23.47
2022-11-01T12:20:27.184Z,23.36
2022-11-01T12:23:27.374Z,23.60
2022-11-01T12:25:58.284Z,23.97
2022-11-01T12:28:34.433Z,24.11
2022-11-01T12:31:22.262Z,24.29
2022-11-01T12:34:03.861Z,23.83
2022-11-01T12:36:37.983Z,24.25
2022-11-01T12:39:35.234Z,24.32
2022-11-01T12:42:05.385Z,24.52
2022-11-01T12:44:41.803Z,24.90
2022-11-01T12:47:28.475Z,25.01
2022-11-01T12:50:03.154Z,25.15
2022-11-01T12:52:48.542Z,25.16
2022-11-01T12:55:21.072Z,25.35
2022-11-01T12:57:49.621Z,25.04
2022-11-01T13:00:21.458Z,24.95
2022-11-01T13:03:10.733Z,24.63
2022-11-01T13:05:41.777Z,24.53
2022-11-01T13:08:50.672Z,24.34
2022-11-01T13:11:47.723Z,24.23
2022-11-01T13:14:43.487Z,24.21
2022-11-01T13:17:24.126Z,24.15
2022-11-01T13:20:06.339Z,24.33
2022-11-01T13:22:53.051Z,24.23
2022-11-01T13:25:57.008Z,23.92
2022-11-01T13:28:42.583Z,23.78
2022-11-01T13:31:44.974Z,23.71
2022-11-01T13:34:27.864Z,23.58
2022-11-01T13:37:20.008Z,23.73
2022-11-01T13:40:23.732Z,23.33
2022-11-01T13:43:10.406Z,23.77
2022-11-01T13:45:50.229Z,23.80
2022-11-01T13:48:35.999Z,23.77
2022-11-01T13:51:29.988Z,23.81
2022-11-01T13:54:04.208Z,23.65
2022-11-01T13:56:37.782Z,23.87
2022-11-01T13:59:37.964Z,23.78
2022-11-01T14:02:24.181Z,23.85
2022-11-01T14:05:01.364Z,23.86
2022-11-01T14:07:37.846Z,23.75
2022-11-01T14:10:12.483Z,23.51
2022-11-01T14:13:10.006Z,23.62
2022-11-01T14:16:15.266Z,23.56
2022-11-01T14:19:03.942Z,23.65
2022-11-01T14:21:46.929Z,23.57
2022-11-01T14:24:33.569Z,23.66
2022-11-01T14:27:20.714Z,23.48
2022-11-01T14:29:51.374Z,23.38
2022-11-01T14:32:22.999Z,23.36
2022-11-01T14:35:02.259Z,23.38
2022-11-01T14:37:39.543Z,23.32
2022-11-01T14:40:30.771Z,23.19
2022-11-01T14:43:36.978Z,23.46
2022-11-01T14:46:16.384Z,23.32
2022-11-01T14:48:51.629Z,23.37
2022-11-01T14:51:35.649Z,23.22
2022-11-01T14:54:17.173Z,23.15
2022-11-01T14:56:53.397Z,23.31
2022-11-01T14:59:32.966Z,23.20
2022-11-01T15:02:08.265Z,23.19
2022-11-01T15:04:44.818Z,23.30
2022-11-01T15:07:27.738Z,22.98
2022-11-01T15:10:02.238Z,22.67
2022-11-01T15:12:35.798Z,22.86
2022-11-01T15:15:04.920Z,22.69
2022-11-01T15:17:35.279Z,22.65
2022-11-01T15:20:15.084Z,22.64
2022-11-01T15:22:43.206Z,22.52
2022-11-01T15:25:22.334Z,22.71
2022-11-01T15:27:51.431Z,22.61
2022-11-01T15:30:23.088Z,22.69
2022-11-01T15:33:10.406Z,22.54
2022-11-01T15:35:38.981Z,22.61
2022-11-01T15:38:20.990Z,22.51
2022-11-01T15:40:53.455Z,22.44
2022-11-01T15:43:29.814Z,22.39
2022-11-01T15:46:01.009Z,22.46
2022-11-01T15:48:38.535Z,22.33
2022-11-01T15:51:15.634Z,22.33
2022-11-01T15:53:43.709Z,22.09
2022-11-01T15:56:19.021Z,21.94
2022-11-01T16:01:26.838Z,21.62
2022-11-01T16:04:07.051Z,21.48
2022-11-01T16:06:56.028Z,22.03
2022-11-01T16:09:38.918Z,22.09
2022-11-01T16:12:18.091Z,22.04
2022-11-01T16:15:11.419Z,22.05
2022-11-01T16:17:42.420Z,21.92
2022-11-01T16:20:36.680Z,21.93
2022-11-01T16:23:06.704Z,21.97
2022-11-01T16:25:39.835Z,22.00
2022-11-01T16:28:10.895Z,21.90
2022-11-01T16:30:46.849Z,21.92
2022-11-01T16:33:29.178Z,21.79
2022-11-01T16:36:20.889Z,21.67
2022-11-01T16:38:53.835Z,21.74
2022-11-01T16:41:24.574Z,21.44
2022-11-01T16:43:55.853Z,21.55
2022-11-01T16:46:25.964Z,21.69
2022-11-01T16:49:04.016Z,21.45
2022-11-01T16:51:32.296Z,21.38
2022-11-01T16:54:01.620Z,21.44
2022-11-01T16:56:37.905Z,21.39
2022-11-01T17:03:25.813Z,21.17
2022-11-01T17:05:56.475Z,21.18
2022-11-01T17:08:28.069Z,20.92
2022-11-01T17:10:56.336Z,20.94
2022-11-01T17:13:25.146Z,20.99
2022-11-01T17:15:53.945Z,20.86
2022-11-01T17:18:29.635Z,20.97
2022-11-01T17:21:00.697Z,20.91
2022-11-01T17:23:30.133Z,20.88
2022-11-01T17:25:58.415Z,20.79
2022-11-01T17:28:26.366Z,20.86
2022-11-01T17:30:55.376Z,20.75
2022-11-01T17:33:23.375Z,20.75
2022-11-01T17:35:52.678Z,20.73
2022-11-01T17:38:30.107Z,20.95
2022-11-01T17:41:00.068Z,20.83
2022-11-01T17:43:28.419Z,21.01
2022-11-01T17:45:59.710Z,20.89
2022-11-01T17:48:28.079Z,20.94
2022-11-01T17:51:01.457Z,20.64
2022-11-01T17:53:29.620Z,20.65
2022-11-01T17:55:58.097Z,20.99
2022-11-01T17:58:26.269Z,20.89
2022-11-01T18:00:54.496Z,20.80
2022-11-01T18:03:22.445Z,20.68
2022-11-01T18:05:51.048Z,20.79
2022-11-01T18:08:21.130Z,20.87
2022-11-01T18:11:04.340Z,20.56
2022-11-01T18:14:03.544Z,20.63
2022-11-01T18:16:38.120Z,20.92
2022-11-01T18:19:29.221Z,20.62
2022-11-01T18:21:57.473Z,20.82
2022-11-01T18:24:35.734Z,20.83
2022-11-01T18:27:13.888Z,20.84
2022-11-01T18:29:50.091Z,20.66
2022-11-01T18:33:03.684Z,20.67
2022-11-01T18:35:40.525Z,20.76
2022-11-01T18:38:18.709Z,20.68
2022-11-01T18:41:00.631Z,20.68
2022-11-01T18:43:32.891Z,20.58
2022-11-01T18:46:23.822Z,20.61
2022-11-01T18:49:00.699Z,20.58
2022-11-01T18:51:31.672Z,20.55
2022-11-01T18:54:08.574Z,20.48
2022-11-01T18:56:41.072Z,20.45
2022-11-01T18:59:33.137Z,20.49
2022-11-01T19:02:24.503Z,20.50
2022-11-01T19:05:18.108Z,19.98
2022-11-01T19:08:10.213Z,18.91
2022-11-01T19:10:42.276Z,18.95
2022-11-01T19:13:22.577Z,18.65
2022-11-01T19:15:54.151Z,19.08
2022-11-01T19:18:23.619Z,19.29
2022-11-01T19:21:00.586Z,19.53
2022-11-01T19:23:38.592Z,19.00
2022-11-01T19:26:25.546Z,19.02
2022-11-01T19:28:54.095Z,18.86
2022-11-01T19:31:31.439Z,19.14
2022-11-01T19:34:04.800Z,19.09
2022-11-01T19:39:32.188Z,19.02
2022-11-01T19:42:07.066Z,19.23
2022-11-01T19:44:36.492Z,18.95
2022-11-01T19:47:44.461Z,19.19
2022-11-01T19:50:23.671Z,19.36
2022-11-01T19:52:57.525Z,19.36
2022-11-01T19:55:51.381Z,19.01
2022-11-01T19:58:28.548Z,18.71
2022-11-01T20:01:03.170Z,18.79
2022-11-01T20:03:44.635Z,18.64
2022-11-01T20:06:35.507Z,18.63
2022-11-01T20:09:27.459Z,18.82
2022-11-01T20:11:57.491Z,18.64
2022-11-01T20:14:26.008Z,18.76
2022-11-01T20:16:55.006Z,18.81
2022-11-01T20:19:49.064Z,18.99
2022-11-01T20:22:18.342Z,18.89
2022-11-01T20:24:47.732Z,18.96
2022-11-01T20:27:19.869Z,19.11
2022-11-01T20:29:49.445Z,19.08
2022-11-01T20:32:19.073Z,19.24
2022-11-01T20:34:50.651Z,19.02
2022-11-01T20:37:34.098Z,18.88
2022-11-01T20:40:04.981Z,19.15
2022-11-01T20:42:34.752Z,18.90
2022-11-01T20:45:04.602Z,18.94
2022-11-01T20:47:33.131Z,18.83
2022-11-01T20:50:06.259Z,18.81
2022-11-01T20:52:39.763Z,18.73
2022-11-01T20:55:11.870Z,18.81
2022-11-01T20:57:42.280Z,18.81
2022-11-01T21:00:15.394Z,18.81
2022-11-01T21:02:45.486Z,18.86
2022-11-01T21:05:30.527Z,18.88
2022-11-01T21:08:11.618Z,18.70
2022-11-01T21:10:43.313Z,18.69
2022-11-01T21:13:27.259Z,18.92
2022-11-01T21:15:59.134Z,18.85
2022-11-01T21:18:48.283Z,18.96
2022-11-01T21:21:27.219Z,19.11
2022-11-01T21:23:55.519Z,19.08
2022-11-01T21:26:26.891Z,19.07
2022-11-01T21:28:59.197Z,18.91
2022-11-01T21:31:30.565Z,18.90
2022-11-01T21:34:04.746Z,19.02
2022-11-01T21:36:47.873Z,19.01
2022-11-01T21:39:16.088Z,18.97
2022-11-01T21:41:51.866Z,18.87
2022-11-01T21:44:40.027Z,18.37
2022-11-01T21:47:25.501Z,18.57
2022-11-01T21:49:54.057Z,18.28
2022-11-01T21:52:23.062Z,18.05
2022-11-01T21:54:52.819Z,18.11
2022-11-01T21:57:21.551Z,17.82
2022-11-01T21:59:49.752Z,17.94
2022-11-01T22:02:18.063Z,17.96
2022-11-01T22:04:46.334Z,18.04
2022-11-01T22:07:14.842Z,18.10
2022-11-01T22:09:42.982Z,18.13
2022-11-01T22:12:11.150Z,18.32
2022-11-01T22:14:39.001Z,18.32
2022-11-01T22:17:07.497Z,18.21
2022-11-01T22:19:35.209Z,17.95
2022-11-01T22:22:03.470Z,18.01
2022-11-01T22:24:31.510Z,17.55
2022-11-01T22:26:59.791Z,17.21
2022-11-01T22:29:27.685Z,17.64
2022-11-01T22:31:56.094Z,17.63
2022-11-01T22:34:24.384Z,17.35
2022-11-01T22:36:52.505Z,17.28
2022-11-01T22:39:23.731Z,17.30
2022-11-01T22:41:52.753Z,17.28
2022-11-01T22:44:27.554Z,17.48
2022-11-01T22:46:59.871Z,17.58
2022-11-01T22:49:46.252Z,17.56
2022-11-01T22:52:34.931Z,17.75
2022-11-01T22:55:09.004Z,17.82
2022-11-01T22:57:55.408Z,17.75
2022-11-01T23:00:26.928Z,17.94
2022-11-01T23:03:18.908Z,17.87
2022-11-01T23:05:52.862Z,17.95
2022-11-01T23:08:30.487Z,17.90
2022-11-01T23:10:59.421Z,17.92
2022-11-01T23:13:55.561Z,17.97
